sensor_id;sensor_type;location;lat;lon;timestamp;pressure;altitude;pressure_sealevel;temperature;humidity
66547;BME280;53400;50.364;14.874;2023-02-13T00:01:31;100733.50;;;3.90;100.00
66547;BME280;53400;50.364;14.874;2023-02-13T00:03:58;100730.66;;;3.92;100.00
66547;BME280;53400;50.364;14.874;2023-02-13T00:06:24;100730.94;;;3.99;100.00
66547;BME280;53400;50.364;14.874;2023-02-13T00:08:50;100730.31;;;4.05;100.00
66547;BME280;53400;50.364;14.874;2023-02-13T00:11:16;100733.56;;;4.17;100.00
66547;BME280;53400;50.364;14.874;2023-02-13T00:13:42;100734.03;;;4.48;100.00
66547;BME280;53400;50.364;14.874;2023-02-13T00:16:10;100726.50;;;4.43;100.00
66547;BME280;53400;50.364;14.874;2023-02-13T00:18:37;100728.78;;;4.82;100.00
66547;BME280;53400;50.364;14.874;2023-02-13T00:21:04;100714.81;;;4.80;100.00
66547;BME280;53400;50.364;14.874;2023-02-13T00:23:31;100735.16;;;4.45;100.00
66547;BME280;53400;50.364;14.874;2023-02-13T00:25:58;100726.50;;;4.43;100.00
66547;BME280;53400;50.364;14.874;2023-02-13T00:28:24;100729.16;;;4.25;100.00
66547;BME280;53400;50.364;14.874;2023-02-13T00:30:50;100731.91;;;4.77;100.00
66547;BME280;53400;50.364;14.874;2023-02-13T00:33:17;100727.22;;;4.71;100.00
66547;BME280;53400;50.364;14.874;2023-02-13T00:35:44;100731.06;;;4.77;100.00
66547;BME280;53400;50.364;14.874;2023-02-13T00:38:10;100733.22;;;4.55;100.00
66547;BME280;53400;50.364;14.874;2023-02-13T00:40:36;100737.59;;;4.39;100.00
66547;BME280;53400;50.364;14.874;2023-02-13T00:43:02;100734.63;;;4.59;100.00
66547;BME280;53400;50.364;14.874;2023-02-13T00:45:28;100730.03;;;4.70;100.00
66547;BME280;53400;50.364;14.874;2023-02-13T00:47:53;100726.28;;;4.54;100.00
66547;BME280;53400;50.364;14.874;2023-02-13T00:50:21;100737.59;;;4.39;100.00
66547;BME280;53400;50.364;14.874;2023-02-13T00:52:47;100734.84;;;4.30;100.00
66547;BME280;53400;50.364;14.874;2023-02-13T00:55:14;100729.88;;;4.09;100.00
66547;BME280;53400;50.364;14.874;2023-02-13T00:57:40;100733.25;;;4.20;100.00
66547;BME280;53400;50.364;14.874;2023-02-13T01:00:07;100732.69;;;4.08;100.00
66547;BME280;53400;50.364;14.874;2023-02-13T01:02:33;100721.78;;;4.11;100.00
66547;BME280;53400;50.364;14.874;2023-02-13T01:05:01;100724.78;;;4.16;100.00
66547;BME280;53400;50.364;14.874;2023-02-13T01:07:28;100726.59;;;4.16;100.00
66547;BME280;53400;50.364;14.874;2023-02-13T01:09:55;100727.22;;;4.09;100.00
66547;BME280;53400;50.364;14.874;2023-02-13T01:12:21;100718.88;;;4.04;100.00
66547;BME280;53400;50.364;14.874;2023-02-13T01:14:47;100714.25;;;3.88;100.00
66547;BME280;53400;50.364;14.874;2023-02-13T01:17:12;100719.41;;;4.08;100.00
66547;BME280;53400;50.364;14.874;2023-02-13T01:19:39;100722.50;;;4.21;100.00
66547;BME280;53400;50.364;14.874;2023-02-13T01:22:06;100719.94;;;4.29;100.00
66547;BME280;53400;50.364;14.874;2023-02-13T01:24:34;100713.13;;;4.27;100.00
66547;BME280;53400;50.364;14.874;2023-02-13T01:26:59;100711.44;;;4.26;100.00
66547;BME280;53400;50.364;14.874;2023-02-13T01:29:27;100720.69;;;4.22;100.00
66547;BME280;53400;50.364;14.874;2023-02-13T01:31:53;100705.47;;;4.24;100.00
66547;BME280;53400;50.364;14.874;2023-02-13T01:34:18;100712.03;;;4.20;100.00
66547;BME280;53400;50.364;14.874;2023-02-13T01:36:44;100705.84;;;4.11;100.00
66547;BME280;53400;50.364;14.874;2023-02-13T01:39:11;100711.53;;;4.16;100.00
66547;BME280;53400;50.364;14.874;2023-02-13T01:41:38;100711.53;;;4.16;100.00
66547;BME280;53400;50.364;14.874;2023-02-13T01:47:03;100708.94;;;4.06;100.00
66547;BME280;53400;50.364;14.874;2023-02-13T01:49:30;100704.41;;;3.99;100.00
66547;BME280;53400;50.364;14.874;2023-02-13T01:51:56;100711.16;;;3.93;100.00
66547;BME280;53400;50.364;14.874;2023-02-13T01:54:25;100711.38;;;4.00;100.00
66547;BME280;53400;50.364;14.874;2023-02-13T01:56:59;100708.88;;;4.16;100.00
66547;BME280;53400;50.364;14.874;2023-02-13T01:59:30;100707.94;;;4.07;100.00
66547;BME280;53400;50.364;14.874;2023-02-13T02:01:59;100708.13;;;4.24;100.00
66547;BME280;53400;50.364;14.874;2023-02-13T02:04:28;100707.13;;;4.25;100.00
66547;BME280;53400;50.364;14.874;2023-02-13T02:06:58;100708.13;;;4.06;100.00
66547;BME280;53400;50.364;14.874;2023-02-13T02:09:29;100703.34;;;3.91;100.00
66547;BME280;53400;50.364;14.874;2023-02-13T02:12:01;100692.81;;;3.82;100.00
66547;BME280;53400;50.364;14.874;2023-02-13T02:14:30;100700.75;;;3.82;100.00
66547;BME280;53400;50.364;14.874;2023-02-13T02:16:56;100702.91;;;4.14;100.00
66547;BME280;53400;50.364;14.874;2023-02-13T02:19:31;100698.13;;;4.62;100.00
66547;BME280;53400;50.364;14.874;2023-02-13T02:22:24;100699.03;;;4.08;100.00
66547;BME280;53400;50.364;14.874;2023-02-13T02:25:15;100693.16;;;3.51;100.00
66547;BME280;53400;50.364;14.874;2023-02-13T02:28:01;100691.69;;;3.39;100.00
66547;BME280;53400;50.364;14.874;2023-02-13T02:31:06;100686.94;;;3.60;100.00
66547;BME280;53400;50.364;14.874;2023-02-13T02:33:50;100689.59;;;3.60;100.00
66547;BME280;53400;50.364;14.874;2023-02-13T02:36:46;100699.13;;;3.71;100.00
66547;BME280;53400;50.364;14.874;2023-02-13T02:39:23;100696.56;;;3.61;100.00
66547;BME280;53400;50.364;14.874;2023-02-13T02:41:58;100693.75;;;3.45;100.00
66547;BME280;53400;50.364;14.874;2023-02-13T02:44:34;100683.59;;;3.58;100.00
66547;BME280;53400;50.364;14.874;2023-02-13T02:47:08;100678.31;;;3.58;100.00
66547;BME280;53400;50.364;14.874;2023-02-13T02:50:03;100684.09;;;3.72;100.00
66547;BME280;53400;50.364;14.874;2023-02-13T02:52:40;100687.03;;;3.86;100.00
66547;BME280;53400;50.364;14.874;2023-02-13T02:55:12;100686.13;;;4.13;100.00
66547;BME280;53400;50.364;14.874;2023-02-13T02:57:44;100690.59;;;3.95;100.00
66547;BME280;53400;50.364;14.874;2023-02-13T03:00:32;100687.50;;;3.82;100.00
66547;BME280;53400;50.364;14.874;2023-02-13T03:03:22;100690.53;;;3.69;100.00
66547;BME280;53400;50.364;14.874;2023-02-13T03:06:12;100689.00;;;3.66;100.00
66547;BME280;53400;50.364;14.874;2023-02-13T03:08:43;100692.59;;;3.75;100.00
66547;BME280;53400;50.364;14.874;2023-02-13T03:11:28;100685.63;;;3.47;100.00
66547;BME280;53400;50.364;14.874;2023-02-13T03:14:19;100677.69;;;3.47;100.00
66547;BME280;53400;50.364;14.874;2023-02-13T03:16:45;100685.78;;;3.45;100.00
66547;BME280;53400;50.364;14.874;2023-02-13T03:19:42;100682.75;;;3.40;100.00
66547;BME280;53400;50.364;14.874;2023-02-13T03:22:34;100682.66;;;3.32;100.00
66547;BME280;53400;50.364;14.874;2023-02-13T03:25:07;100692.84;;;3.27;100.00
66547;BME280;53400;50.364;14.874;2023-02-13T03:27:42;100695.03;;;3.41;100.00
66547;BME280;53400;50.364;14.874;2023-02-13T03:30:37;100686.63;;;3.18;100.00
66547;BME280;53400;50.364;14.874;2023-02-13T03:33:16;100699.81;;;3.28;100.00
66547;BME280;53400;50.364;14.874;2023-02-13T03:35:48;100700.94;;;3.25;100.00
66547;BME280;53400;50.364;14.874;2023-02-13T03:38:41;100692.03;;;3.26;100.00
66547;BME280;53400;50.364;14.874;2023-02-13T03:41:13;100698.25;;;3.35;100.00
66547;BME280;53400;50.364;14.874;2023-02-13T03:43:49;100703.69;;;3.33;100.00
66547;BME280;53400;50.364;14.874;2023-02-13T03:46:17;100700.06;;;3.34;100.00
66547;BME280;53400;50.364;14.874;2023-02-13T03:48:45;100697.81;;;3.39;100.00
66547;BME280;53400;50.364;14.874;2023-02-13T03:51:35;100694.22;;;3.76;100.00
66547;BME280;53400;50.364;14.874;2023-02-13T03:54:06;100696.66;;;3.70;100.00
66547;BME280;53400;50.364;14.874;2023-02-13T03:56:39;100687.88;;;3.69;100.00
66547;BME280;53400;50.364;14.874;2023-02-13T03:59:28;100692.44;;;3.49;100.00
66547;BME280;53400;50.364;14.874;2023-02-13T04:01:59;100698.94;;;3.37;100.00
66547;BME280;53400;50.364;14.874;2023-02-13T04:04:32;100682.75;;;3.40;100.00
66547;BME280;53400;50.364;14.874;2023-02-13T04:07:03;100688.84;;;3.50;100.00
66547;BME280;53400;50.364;14.874;2023-02-13T04:09:34;100690.25;;;3.44;100.00
66547;BME280;53400;50.364;14.874;2023-02-13T04:12:05;100694.66;;;3.54;100.00
66547;BME280;53400;50.364;14.874;2023-02-13T04:14:37;100695.25;;;3.48;100.00
66547;BME280;53400;50.364;14.874;2023-02-13T04:17:06;100692.50;;;3.39;100.00
66547;BME280;53400;50.364;14.874;2023-02-13T04:19:33;100696.03;;;3.58;100.00
66547;BME280;53400;50.364;14.874;2023-02-13T04:22:01;100691.69;;;3.39;100.00
66547;BME280;53400;50.364;14.874;2023-02-13T04:24:27;100687.81;;;3.33;100.00
66547;BME280;53400;50.364;14.874;2023-02-13T04:26:55;100690.03;;;3.38;100.00
66547;BME280;53400;50.364;14.874;2023-02-13T04:29:23;100694.91;;;3.33;100.00
66547;BME280;53400;50.364;14.874;2023-02-13T04:31:50;100692.84;;;3.27;100.00
66547;BME280;53400;50.364;14.874;2023-02-13T04:34:15;100691.38;;;3.42;100.00
66547;BME280;53400;50.364;14.874;2023-02-13T04:36:41;100687.84;;;3.51;100.00
66547;BME280;53400;50.364;14.874;2023-02-13T04:39:07;100690.16;;;3.82;100.00
66547;BME280;53400;50.364;14.874;2023-02-13T04:41:33;100685.59;;;3.74;100.00
66547;BME280;53400;50.364;14.874;2023-02-13T04:44:00;100686.69;;;3.81;100.00
66547;BME280;53400;50.364;14.874;2023-02-13T04:46:26;100682.19;;;3.64;100.00
66547;BME280;53400;50.364;14.874;2023-02-13T04:48:52;100676.50;;;3.59;100.00
66547;BME280;53400;50.364;14.874;2023-02-13T04:51:18;100680.06;;;3.67;100.00
66547;BME280;53400;50.364;14.874;2023-02-13T04:53:44;100678.19;;;3.60;100.00
66547;BME280;53400;50.364;14.874;2023-02-13T04:56:10;100677.88;;;3.63;100.00
66547;BME280;53400;50.364;14.874;2023-02-13T04:58:36;100671.94;;;3.51;100.00
66547;BME280;53400;50.364;14.874;2023-02-13T05:01:10;100684.50;;;3.49;100.00
66547;BME280;53400;50.364;14.874;2023-02-13T05:03:36;100685.78;;;3.45;100.00
66547;BME280;53400;50.364;14.874;2023-02-13T05:06:02;100689.97;;;3.48;100.00
66547;BME280;53400;50.364;14.874;2023-02-13T05:08:28;100690.94;;;3.47;100.00
66547;BME280;53400;50.364;14.874;2023-02-13T05:10:54;100691.19;;;3.53;100.00
66547;BME280;53400;50.364;14.874;2023-02-13T05:13:20;100691.09;;;3.45;100.00
66547;BME280;53400;50.364;14.874;2023-02-13T05:15:46;100698.00;;;3.74;100.00
66547;BME280;53400;50.364;14.874;2023-02-13T05:18:13;100693.03;;;3.43;100.00
66547;BME280;53400;50.364;14.874;2023-02-13T05:20:40;100692.84;;;3.54;100.00
66547;BME280;53400;50.364;14.874;2023-02-13T05:23:09;100686.31;;;3.49;100.00
66547;BME280;53400;50.364;14.874;2023-02-13T05:25:49;100687.56;;;3.54;100.00
66547;BME280;53400;50.364;14.874;2023-02-13T05:28:15;100695.50;;;3.54;100.00
66547;BME280;53400;50.364;14.874;2023-02-13T05:31:00;100689.41;;;3.72;100.00
66547;BME280;53400;50.364;14.874;2023-02-13T05:33:27;100687.84;;;3.51;100.00
66547;BME280;53400;50.364;14.874;2023-02-13T05:35:53;100690.91;;;3.56;100.00
66547;BME280;53400;50.364;14.874;2023-02-13T05:38:19;100701.81;;;3.89;100.00
66547;BME280;53400;50.364;14.874;2023-02-13T05:40:45;100691.50;;;3.86;100.00
66547;BME280;53400;50.364;14.874;2023-02-13T05:43:11;100689.59;;;3.60;100.00
66547;BME280;53400;50.364;14.874;2023-02-13T05:45:37;100682.25;;;3.54;100.00
66547;BME280;53400;50.364;14.874;2023-02-13T05:48:03;100691.44;;;3.60;100.00
66547;BME280;53400;50.364;14.874;2023-02-13T05:50:31;100703.19;;;3.75;100.00
66547;BME280;53400;50.364;14.874;2023-02-13T05:52:56;100696.22;;;3.19;100.00
66547;BME280;53400;50.364;14.874;2023-02-13T05:55:22;100694.72;;;3.44;100.00
66547;BME280;53400;50.364;14.874;2023-02-13T05:57:48;100696.78;;;3.50;100.00
66547;BME280;53400;50.364;14.874;2023-02-13T06:00:15;100698.28;;;3.53;100.00
66547;BME280;53400;50.364;14.874;2023-02-13T06:02:41;100702.28;;;3.39;100.00
66547;BME280;53400;50.364;14.874;2023-02-13T06:05:07;100704.22;;;3.37;100.00
66547;BME280;53400;50.364;14.874;2023-02-13T06:07:34;100702.34;;;3.19;100.00
66547;BME280;53400;50.364;14.874;2023-02-13T06:10:00;100701.34;;;3.30;100.00
66547;BME280;53400;50.364;14.874;2023-02-13T06:12:26;100704.81;;;3.31;100.00
66547;BME280;53400;50.364;14.874;2023-02-13T06:14:52;100704.41;;;3.26;100.00
66547;BME280;53400;50.364;14.874;2023-02-13T06:17:18;100702.47;;;3.28;100.00
66547;BME280;53400;50.364;14.874;2023-02-13T06:19:44;100701.84;;;3.06;100.00
66547;BME280;53400;50.364;14.874;2023-02-13T06:22:09;100693.81;;;3.26;100.00
66547;BME280;53400;50.364;14.874;2023-02-13T06:24:37;100694.28;;;3.49;100.00
66547;BME280;53400;50.364;14.874;2023-02-13T06:27:03;100690.00;;;3.65;100.00
66547;BME280;53400;50.364;14.874;2023-02-13T06:29:29;100700.75;;;3.82;100.00
66547;BME280;53400;50.364;14.874;2023-02-13T06:31:55;100703.72;;;3.79;100.00
66547;BME280;53400;50.364;14.874;2023-02-13T06:34:22;100701.31;;;3.58;100.00
66547;BME280;53400;50.364;14.874;2023-02-13T06:36:47;100704.28;;;3.27;100.00
66547;BME280;53400;50.364;14.874;2023-02-13T06:39:14;100711.94;;;3.30;100.00
66547;BME280;53400;50.364;14.874;2023-02-13T06:41:41;100713.47;;;3.33;100.00
66547;BME280;53400;50.364;14.874;2023-02-13T06:44:07;100708.34;;;3.21;100.00
66547;BME280;53400;50.364;14.874;2023-02-13T06:46:33;100702.75;;;3.52;100.00
66547;BME280;53400;50.364;14.874;2023-02-13T06:48:59;100701.25;;;3.67;100.00
66547;BME280;53400;50.364;14.874;2023-02-13T06:51:25;100705.16;;;3.91;100.00
66547;BME280;53400;50.364;14.874;2023-02-13T06:53:51;100704.13;;;3.56;100.00
66547;BME280;53400;50.364;14.874;2023-02-13T06:56:17;100707.34;;;3.32;100.00
66547;BME280;53400;50.364;14.874;2023-02-13T06:58:45;100716.16;;;3.23;100.00
66547;BME280;53400;50.364;14.874;2023-02-13T07:01:10;100721.59;;;3.21;100.00
66547;BME280;53400;50.364;14.874;2023-02-13T07:03:37;100725.59;;;3.26;100.00
66547;BME280;53400;50.364;14.874;2023-02-13T07:06:03;100721.00;;;3.28;100.00
66547;BME280;53400;50.364;14.874;2023-02-13T07:08:29;100715.41;;;3.31;100.00
66547;BME280;53400;50.364;14.874;2023-02-13T07:10:55;100716.22;;;3.41;100.00
66547;BME280;53400;50.364;14.874;2023-02-13T07:13:21;100711.88;;;3.40;100.00
66547;BME280;53400;50.364;14.874;2023-02-13T07:15:48;100718.69;;;3.42;100.00
66547;BME280;53400;50.364;14.874;2023-02-13T07:18:14;100715.34;;;3.50;100.00
66547;BME280;53400;50.364;14.874;2023-02-13T07:20:40;100719.03;;;3.57;100.00
66547;BME280;53400;50.364;14.874;2023-02-13T07:23:07;100717.38;;;3.56;100.00
66547;BME280;53400;50.364;14.874;2023-02-13T07:25:32;100730.22;;;3.24;100.00
66547;BME280;53400;50.364;14.874;2023-02-13T07:28:03;100724.28;;;3.39;100.00
66547;BME280;53400;50.364;14.874;2023-02-13T07:30:29;100726.00;;;3.31;100.00
66547;BME280;53400;50.364;14.874;2023-02-13T07:32:59;100731.75;;;3.26;100.00
66547;BME280;53400;50.364;14.874;2023-02-13T07:35:24;100737.44;;;3.31;100.00
66547;BME280;53400;50.364;14.874;2023-02-13T07:37:52;100738.56;;;3.29;100.00
66547;BME280;53400;50.364;14.874;2023-02-13T07:40:20;100739.91;;;3.42;100.00
66547;BME280;53400;50.364;14.874;2023-02-13T07:42:46;100735.63;;;3.59;100.00
66547;BME280;53400;50.364;14.874;2023-02-13T07:45:14;100739.50;;;3.37;100.00
66547;BME280;53400;50.364;14.874;2023-02-13T07:47:41;100737.88;;;3.54;100.00
66547;BME280;53400;50.364;14.874;2023-02-13T07:50:09;100723.00;;;3.71;100.00
66547;BME280;53400;50.364;14.874;2023-02-13T07:52:37;100729.09;;;3.81;100.00
66547;BME280;53400;50.364;14.874;2023-02-13T07:55:04;100733.28;;;3.74;100.00
66547;BME280;53400;50.364;14.874;2023-02-13T07:57:31;100737.34;;;3.78;100.00
66547;BME280;53400;50.364;14.874;2023-02-13T07:59:57;100737.69;;;3.83;100.00
66547;BME280;53400;50.364;14.874;2023-02-13T08:02:24;100737.88;;;4.00;100.00
66547;BME280;53400;50.364;14.874;2023-02-13T08:04:49;100731.66;;;3.91;100.00
66547;BME280;53400;50.364;14.874;2023-02-13T08:07:17;100726.16;;;4.02;100.00
66547;BME280;53400;50.364;14.874;2023-02-13T08:09:43;100723.88;;;4.07;100.00
66547;BME280;53400;50.364;14.874;2023-02-13T08:12:29;100729.56;;;4.12;100.00
66547;BME280;53400;50.364;14.874;2023-02-13T08:14:55;100720.91;;;4.28;100.00
66547;BME280;53400;50.364;14.874;2023-02-13T08:17:21;100712.19;;;4.54;100.00
66547;BME280;53400;50.364;14.874;2023-02-13T08:19:47;100703.16;;;4.47;100.00
66547;BME280;53400;50.364;14.874;2023-02-13T08:22:13;100708.84;;;4.52;100.00
66547;BME280;53400;50.364;14.874;2023-02-13T08:24:42;100704.84;;;4.74;100.00
66547;BME280;53400;50.364;14.874;2023-02-13T08:27:11;100703.88;;;4.75;100.00
66547;BME280;53400;50.364;14.874;2023-02-13T08:29:37;100701.94;;;4.85;100.00
66547;BME280;53400;50.364;14.874;2023-02-13T08:32:03;100708.47;;;4.99;100.00
66547;BME280;53400;50.364;14.874;2023-02-13T08:34:29;100706.34;;;4.76;100.00
66547;BME280;53400;50.364;14.874;2023-02-13T08:36:55;100701.66;;;4.70;100.00
66547;BME280;53400;50.364;14.874;2023-02-13T08:39:21;100712.84;;;4.82;100.00
66547;BME280;53400;50.364;14.874;2023-02-13T08:41:48;100713.41;;;4.68;100.00
66547;BME280;53400;50.364;14.874;2023-02-13T08:44:14;100713.25;;;4.95;100.00
66547;BME280;53400;50.364;14.874;2023-02-13T08:46:40;100719.50;;;5.12;100.00
66547;BME280;53400;50.364;14.874;2023-02-13T08:49:06;100722.25;;;5.28;100.00
66547;BME280;53400;50.364;14.874;2023-02-13T08:51:32;100724.56;;;5.23;100.00
66547;BME280;53400;50.364;14.874;2023-02-13T08:53:57;100725.25;;;4.99;100.00
66547;BME280;53400;50.364;14.874;2023-02-13T08:56:23;100724.94;;;5.02;100.00
66547;BME280;53400;50.364;14.874;2023-02-13T08:58:50;100732.78;;;4.86;100.00
66547;BME280;53400;50.364;14.874;2023-02-13T09:01:17;100740.06;;;5.36;100.00
66547;BME280;53400;50.364;14.874;2023-02-13T09:03:43;100731.84;;;5.21;100.00
66547;BME280;53400;50.364;14.874;2023-02-13T09:06:09;100736.72;;;5.34;100.00
66547;BME280;53400;50.364;14.874;2023-02-13T09:08:35;100733.34;;;5.24;100.00
66547;BME280;53400;50.364;14.874;2023-02-13T09:11:02;100737.41;;;5.36;100.00
66547;BME280;53400;50.364;14.874;2023-02-13T09:13:31;100735.38;;;5.30;100.00
66547;BME280;53400;50.364;14.874;2023-02-13T09:16:04;100733.75;;;5.37;100.00
66547;BME280;53400;50.364;14.874;2023-02-13T09:18:30;100740.47;;;5.58;100.00
66547;BME280;53400;50.364;14.874;2023-02-13T09:20:58;100743.88;;;5.07;100.00
66547;BME280;53400;50.364;14.874;2023-02-13T09:23:24;100737.72;;;5.41;100.00
66547;BME280;53400;50.364;14.874;2023-02-13T09:25:50;100740.50;;;5.23;100.00
66547;BME280;53400;50.364;14.874;2023-02-13T09:28:16;100734.66;;;5.20;100.00
66547;BME280;53400;50.364;14.874;2023-02-13T09:30:42;100739.06;;;5.37;100.00
66547;BME280;53400;50.364;14.874;2023-02-13T09:33:10;100741.13;;;5.51;100.00
66547;BME280;53400;50.364;14.874;2023-02-13T09:35:37;100740.50;;;5.32;100.00
66547;BME280;53400;50.364;14.874;2023-02-13T09:38:05;100737.59;;;5.43;100.00
66547;BME280;53400;50.364;14.874;2023-02-13T09:40:38;100741.13;;;5.60;100.00
66547;BME280;53400;50.364;14.874;2023-02-13T09:43:12;100735.31;;;5.56;100.00
66547;BME280;53400;50.364;14.874;2023-02-13T09:45:40;100736.25;;;5.47;100.00
66547;BME280;53400;50.364;14.874;2023-02-13T09:48:12;100746.03;;;5.38;100.00
66547;BME280;53400;50.364;14.874;2023-02-13T09:50:40;100750.66;;;5.70;100.00
66547;BME280;53400;50.364;14.874;2023-02-13T09:53:06;100750.16;;;5.75;100.00
66547;BME280;53400;50.364;14.874;2023-02-13T09:55:39;100746.47;;;6.10;100.00
66547;BME280;53400;50.364;14.874;2023-02-13T09:58:17;100753.31;;;6.21;100.00
66547;BME280;53400;50.364;14.874;2023-02-13T10:00:47;100756.78;;;6.30;100.00
66547;BME280;53400;50.364;14.874;2023-02-13T10:03:27;100756.13;;;6.19;100.00
66547;BME280;53400;50.364;14.874;2023-02-13T10:06:07;100760.13;;;6.48;100.00
66547;BME280;53400;50.364;14.874;2023-02-13T10:08:46;100758.97;;;6.18;100.00
66547;BME280;53400;50.364;14.874;2023-02-13T10:11:29;100757.13;;;6.35;100.00
66547;BME280;53400;50.364;14.874;2023-02-13T10:14:06;100758.81;;;6.52;100.00
66547;BME280;53400;50.364;14.874;2023-02-13T10:16:38;100763.97;;;6.62;100.00
66547;BME280;53400;50.364;14.874;2023-02-13T10:19:14;100759.97;;;6.66;100.00
66547;BME280;53400;50.364;14.874;2023-02-13T10:21:46;100757.13;;;6.84;100.00
66547;BME280;53400;50.364;14.874;2023-02-13T10:24:24;100759.09;;;6.98;100.00
66547;BME280;53400;50.364;14.874;2023-02-13T10:26:53;100757.06;;;7.08;100.00
66547;BME280;53400;50.364;14.874;2023-02-13T10:29:24;100751.75;;;7.17;100.00
66547;BME280;53400;50.364;14.874;2023-02-13T10:32:15;100752.56;;;7.09;100.00
66547;BME280;53400;50.364;14.874;2023-02-13T10:34:45;100755.69;;;7.29;99.90
66547;BME280;53400;50.364;14.874;2023-02-13T10:37:14;100747.47;;;7.47;100.00
66547;BME280;53400;50.364;14.874;2023-02-13T10:39:42;100739.84;;;7.44;99.78
66547;BME280;53400;50.364;14.874;2023-02-13T10:42:18;100746.75;;;7.61;96.70
66547;BME280;53400;50.364;14.874;2023-02-13T10:44:54;100732.16;;;7.49;98.75
66547;BME280;53400;50.364;14.874;2023-02-13T10:47:35;100735.19;;;7.38;98.30
66547;BME280;53400;50.364;14.874;2023-02-13T10:50:16;100736.81;;;7.47;98.66
66547;BME280;53400;50.364;14.874;2023-02-13T10:52:50;100730.47;;;7.48;97.84
66547;BME280;53400;50.364;14.874;2023-02-13T10:55:30;100732.88;;;7.34;98.26
66547;BME280;53400;50.364;14.874;2023-02-13T10:58:07;100731.00;;;7.43;98.02
66547;BME280;53400;50.364;14.874;2023-02-13T11:00:36;100729.31;;;7.42;98.00
66547;BME280;53400;50.364;14.874;2023-02-13T11:03:16;100724.84;;;7.43;97.78
66547;BME280;53400;50.364;14.874;2023-02-13T11:05:43;100732.75;;;7.20;98.13
66547;BME280;53400;50.364;14.874;2023-02-13T11:08:16;100725.72;;;7.27;97.41
66547;BME280;53400;50.364;14.874;2023-02-13T11:10:42;100719.41;;;7.28;98.07
66547;BME280;53400;50.364;14.874;2023-02-13T11:13:15;100717.53;;;7.37;98.55
66547;BME280;53400;50.364;14.874;2023-02-13T11:15:41;100721.97;;;7.52;98.42
66547;BME280;53400;50.364;14.874;2023-02-13T11:18:12;100715.75;;;7.60;96.86
66547;BME280;53400;50.364;14.874;2023-02-13T11:20:41;100715.66;;;7.45;97.33
66547;BME280;53400;50.364;14.874;2023-02-13T11:23:32;100720.91;;;7.30;97.71
66547;BME280;53400;50.364;14.874;2023-02-13T11:26:03;100716.00;;;7.42;97.50
66547;BME280;53400;50.364;14.874;2023-02-13T11:28:36;100714.25;;;7.57;97.03
66547;BME280;53400;50.364;14.874;2023-02-13T11:31:18;100716.31;;;7.78;95.52
66547;BME280;53400;50.364;14.874;2023-02-13T11:33:46;100711.69;;;7.72;94.82
66547;BME280;53400;50.364;14.874;2023-02-13T11:36:14;100711.47;;;7.51;96.18
66547;BME280;53400;50.364;14.874;2023-02-13T11:38:41;100712.44;;;7.58;95.97
66547;BME280;53400;50.364;14.874;2023-02-13T11:41:09;100705.72;;;7.70;95.29
66547;BME280;53400;50.364;14.874;2023-02-13T11:43:43;100712.78;;;7.86;93.27
66547;BME280;53400;50.364;14.874;2023-02-13T11:46:17;100711.13;;;7.85;93.73
66547;BME280;53400;50.364;14.874;2023-02-13T11:48:55;100710.28;;;7.85;93.21
66547;BME280;53400;50.364;14.874;2023-02-13T11:51:34;100706.28;;;7.89;92.57
66547;BME280;53400;50.364;14.874;2023-02-13T11:54:01;100705.38;;;7.96;93.24
66547;BME280;53400;50.364;14.874;2023-02-13T11:56:28;100703.41;;;7.90;92.23
66547;BME280;53400;50.364;14.874;2023-02-13T11:59:12;100706.09;;;7.90;92.31
66547;BME280;53400;50.364;14.874;2023-02-13T12:01:38;100700.72;;;7.98;92.52
66547;BME280;53400;50.364;14.874;2023-02-13T12:04:06;100700.13;;;7.88;92.80
66547;BME280;53400;50.364;14.874;2023-02-13T12:06:57;100690.69;;;7.69;94.01
66547;BME280;53400;50.364;14.874;2023-02-13T12:09:24;100686.91;;;7.95;92.04
66547;BME280;53400;50.364;14.874;2023-02-13T12:11:53;100684.63;;;8.30;94.29
66547;BME280;53400;50.364;14.874;2023-02-13T12:14:24;100687.34;;;8.21;91.12
66547;BME280;53400;50.364;14.874;2023-02-13T12:16:54;100681.84;;;8.23;90.57
66547;BME280;53400;50.364;14.874;2023-02-13T12:19:27;100682.38;;;8.41;89.96
66547;BME280;53400;50.364;14.874;2023-02-13T12:22:04;100679.75;;;8.33;90.49
66547;BME280;53400;50.364;14.874;2023-02-13T12:24:51;100677.16;;;8.25;90.51
66547;BME280;53400;50.364;14.874;2023-02-13T12:27:27;100669.47;;;8.07;90.69
66547;BME280;53400;50.364;14.874;2023-02-13T12:30:23;100659.94;;;8.27;89.91
66547;BME280;53400;50.364;14.874;2023-02-13T12:32:58;100654.94;;;8.24;88.75
66547;BME280;53400;50.364;14.874;2023-02-13T12:35:44;100655.56;;;8.35;89.64
66547;BME280;53400;50.364;14.874;2023-02-13T12:38:22;100661.19;;;8.17;88.89
66547;BME280;53400;50.364;14.874;2023-02-13T12:41:16;100661.81;;;8.04;90.64
66547;BME280;53400;50.364;14.874;2023-02-13T12:44:07;100652.63;;;8.21;89.92
66547;BME280;53400;50.364;14.874;2023-02-13T12:46:51;100653.31;;;8.46;88.63
66547;BME280;53400;50.364;14.874;2023-02-13T12:49:27;100653.44;;;8.68;88.17
66547;BME280;53400;50.364;14.874;2023-02-13T12:52:07;100652.03;;;8.72;86.74
66547;BME280;53400;50.364;14.874;2023-02-13T12:54:46;100653.25;;;8.32;89.74
66547;BME280;53400;50.364;14.874;2023-02-13T12:57:22;100650.91;;;8.52;87.17
66547;BME280;53400;50.364;14.874;2023-02-13T13:00:08;100647.31;;;8.21;89.35
66547;BME280;53400;50.364;14.874;2023-02-13T13:02:48;100650.63;;;8.23;87.34
66547;BME280;53400;50.364;14.874;2023-02-13T13:05:29;100646.44;;;8.06;88.97